Time;durP1;ratioP1;P1;durP2;ratioP2;P2;SDS_P1;SDS_P2;PMS_P1;PMS_P2;Temp;Humidity;BMP_temperature;BMP_pressure;BME280_temperature;BME280_humidity;BME280_pressure;Samples;Min_cycle;Max_cycle;Signal;HPM_P1;HPM_P2
2023/05/16 00:01:13;;;;;;;0.00;0.00;;;;;;;7.66;60.58;101185.72;6116775;22;20033;-75
2023/05/16 00:03:47;;;;;;;0.00;0.00;;;;;;;7.61;60.85;101182.88;6140263;23;20010;-73
2023/05/16 00:06:21;;;;;;;0.00;0.00;;;;;;;7.50;61.44;101168.97;6140562;23;20071;-75
2023/05/16 00:08:47;;;;;;;0.00;0.00;;;;;;;7.52;61.85;101185.06;6240626;22;20100;-74
2023/05/16 00:11:15;;;;;;;0.00;0.00;;;;;;;7.60;62.24;101200.25;6270080;22;20079;-75
2023/05/16 00:13:41;;;;;;;0.00;0.00;;;;;;;7.58;62.65;101208.66;6145713;23;20454;-75
2023/05/16 00:16:07;;;;;;;0.00;0.00;;;;;;;7.55;62.40;101208.25;6114229;22;20377;-75
2023/05/16 00:18:36;;;;;;;0.00;0.00;;;;;;;7.39;62.87;101180.59;6144173;23;20016;-75
2023/05/16 00:21:02;;;;;;;0.00;0.00;;;;;;;7.39;62.62;101186.06;6140145;23;20024;-75
2023/05/16 00:23:37;;;;;;;0.00;0.00;;;;;;;7.35;63.17;101179.38;6144726;23;20382;-76
2023/05/16 00:26:12;;;;;;;;;;;;;;;;;;;;;
2023/05/16 00:28:38;;;;;;;0.00;0.00;;;;;;;7.36;63.51;101191.94;6262233;22;20092;-75
2023/05/16 00:31:11;;;;;;;0.00;0.00;;;;;;;7.34;64.36;101194.03;6246052;22;20097;-78
2023/05/16 00:33:37;;;;;;;0.00;0.00;;;;;;;7.34;64.53;101191.31;6143257;23;20088;-76
2023/05/16 00:36:02;;;;;;;0.00;0.00;;;;;;;7.42;65.33;101212.81;6145400;23;20037;-74
2023/05/16 00:38:36;;;;;;;0.00;0.00;;;;;;;7.23;65.53;101192.06;6141446;23;20029;-75
2023/05/16 00:41:02;;;;;;;0.03;0.03;;;;;;;7.14;66.00;101189.66;6146397;23;20101;-74
2023/05/16 00:43:27;;;;;;;0.00;0.00;;;;;;;7.06;66.99;101197.28;6138843;22;20037;-76
2023/05/16 00:45:59;;;;;;;0.00;0.00;;;;;;;6.91;67.28;101184.84;6119180;23;20478;-76
2023/05/16 00:48:25;;;;;;;0.00;0.00;;;;;;;6.78;67.68;101195.84;6139305;23;20571;-76
2023/05/16 00:50:51;;;;;;;0.00;0.00;;;;;;;6.80;68.01;101220.91;6144541;23;20013;-76
2023/05/16 00:53:17;;;;;;;0.00;0.00;;;;;;;6.43;69.11;101188.97;6143205;23;20021;-76
2023/05/16 00:55:43;;;;;;;0.00;0.00;;;;;;;6.52;68.69;101224.06;6145441;23;20344;-75
2023/05/16 00:58:10;;;;;;;0.00;0.00;;;;;;;6.40;68.64;101222.03;6117220;22;20010;-77
2023/05/16 01:00:36;;;;;;;0.00;0.00;;;;;;;6.19;69.05;101197.91;6145470;23;20349;-75
2023/05/16 01:03:13;;;;;;;0.10;0.10;;;;;;;6.29;69.97;101212.69;6144165;23;20104;-75
2023/05/16 01:05:44;;;;;;;0.00;0.00;;;;;;;6.18;70.03;101201.69;6137987;23;20012;-79
2023/05/16 01:08:09;;;;;;;0.00;0.00;;;;;;;6.02;69.09;101173.16;6146174;23;20026;-75
2023/05/16 01:11:08;;;;;;;0.00;0.00;;;;;;;6.26;69.52;101210.41;6141534;23;20746;-75
2023/05/16 01:13:52;;;;;;;0.00;0.00;;;;;;;6.33;70.48;101215.78;6145413;22;20032;-76
2023/05/16 01:16:29;;;;;;;0.10;0.10;;;;;;;6.19;70.22;101192.47;6142257;23;20063;-76
2023/05/16 01:19:27;;;;;;;0.00;0.00;;;;;;;6.36;69.86;101219.97;6144022;23;20001;-77
2023/05/16 01:22:15;;;;;;;0.10;0.10;;;;;;;6.18;70.47;101190.84;6144149;22;20010;-76
2023/05/16 01:24:57;;;;;;;0.00;0.00;;;;;;;6.29;70.54;101214.56;6141533;23;20006;-75
2023/05/16 01:27:24;;;;;;;0.00;0.00;;;;;;;6.33;70.50;101221.22;6144445;23;20323;-75
2023/05/16 01:29:55;;;;;;;0.00;0.00;;;;;;;6.19;71.16;101211.50;6140329;23;20029;-75
2023/05/16 01:32:30;;;;;;;0.00;0.00;;;;;;;6.17;71.30;101194.59;6143765;23;20288;-74
2023/05/16 01:34:55;;;;;;;0.00;0.00;;;;;;;6.34;70.67;101212.03;6112411;23;20044;-75
2023/05/16 01:37:34;;;;;;;0.00;0.00;;;;;;;6.28;71.64;101202.06;6145941;23;20009;-75
2023/05/16 01:40:08;;;;;;;0.10;0.10;;;;;;;6.35;71.38;101207.44;6136194;23;20021;-75
2023/05/16 01:42:38;;;;;;;0.10;0.10;;;;;;;6.35;70.80;101208.28;6144534;23;20062;-75
2023/05/16 01:45:31;;;;;;;0.00;0.00;;;;;;;6.43;71.20;101221.59;6134859;23;20009;-75
2023/05/16 01:48:09;;;;;;;0.00;0.00;;;;;;;6.23;71.11;101188.28;6145284;22;20431;-75
2023/05/16 01:50:49;;;;;;;;;;;;;;;;;;;;;
2023/05/16 01:53:21;;;;;;;0.00;0.00;;;;;;;6.41;72.10;101212.84;6140118;23;20085;-74
2023/05/16 01:55:50;;;;;;;0.00;0.00;;;;;;;6.43;71.32;101218.03;6140745;23;20013;-75
2023/05/16 01:58:20;;;;;;;0.00;0.00;;;;;;;6.35;71.71;101205.56;6139414;23;20001;-75
2023/05/16 02:00:45;;;;;;;0.00;0.00;;;;;;;6.41;71.00;101212.84;6141263;23;20017;-75
2023/05/16 02:03:11;;;;;;;0.05;0.05;;;;;;;6.42;71.35;101224.53;6143630;23;20084;-75
2023/05/16 02:05:39;;;;;;;0.00;0.00;;;;;;;6.42;71.74;101213.66;6271020;22;20023;-74
2023/05/16 02:08:05;;;;;;;0.00;0.00;;;;;;;6.37;71.54;101211.59;6120849;23;20347;-74
2023/05/16 02:10:31;;;;;;;0.10;0.10;;;;;;;6.35;71.94;101213.72;6143648;23;20001;-74
2023/05/16 02:12:58;;;;;;;0.00;0.00;;;;;;;6.25;72.57;101207.91;6140891;23;20010;-75
2023/05/16 02:15:24;;;;;;;0.00;0.00;;;;;;;6.22;72.31;101213.75;6146521;23;20009;-75
2023/05/16 02:17:49;;;;;;;0.00;0.00;;;;;;;6.07;72.34;101189.63;6269846;22;20048;-76
2023/05/16 02:20:18;;;;;;;0.00;0.00;;;;;;;6.04;72.74;101190.88;6143694;23;20001;-75
2023/05/16 02:22:46;;;;;;;0.00;0.00;;;;;;;5.99;73.28;101187.19;6139517;23;20012;-75
2023/05/16 02:25:13;;;;;;;0.00;0.00;;;;;;;6.10;72.44;101200.91;6146372;23;20336;-74
2023/05/16 02:27:38;;;;;;;0.00;0.00;;;;;;;6.05;72.46;101192.56;6140886;23;20001;-75
2023/05/16 02:30:04;;;;;;;0.00;0.00;;;;;;;6.19;72.65;101203.34;6140127;23;20016;-74
2023/05/16 02:32:31;;;;;;;0.00;0.00;;;;;;;6.19;72.65;101203.34;6143628;23;20006;-73
2023/05/16 02:34:56;;;;;;;0.00;0.00;;;;;;;6.18;72.81;101207.13;6269699;22;20032;-74
2023/05/16 02:37:29;;;;;;;0.00;0.00;;;;;;;6.15;73.78;101212.97;6140151;23;20019;-75
2023/05/16 02:39:54;;;;;;;0.00;0.00;;;;;;;6.14;73.74;101222.19;6238137;22;20013;-74
2023/05/16 02:42:19;;;;;;;0.00;0.00;;;;;;;6.05;73.53;101203.41;6144574;23;20009;-74
2023/05/16 02:44:45;;;;;;;0.00;0.00;;;;;;;6.06;74.31;101201.53;6139884;23;20029;-74
2023/05/16 02:47:16;;;;;;;0.10;0.10;;;;;;;6.14;73.51;101204.00;6141442;22;20006;-75
2023/05/16 02:49:42;;;;;;;0.00;0.00;;;;;;;6.16;73.18;101190.19;6142796;23;20009;-74
2023/05/16 02:52:12;;;;;;;0.00;0.00;;;;;;;6.18;73.45;101179.97;6118965;23;20335;-75
2023/05/16 02:54:37;;;;;;;0.10;0.10;;;;;;;6.32;72.99;101199.72;6144381;23;20006;-75
2023/05/16 02:57:07;;;;;;;0.00;0.00;;;;;;;6.22;73.31;101181.19;6271705;22;20009;-74
2023/05/16 02:59:33;;;;;;;0.00;0.00;;;;;;;6.23;73.54;101180.13;6146103;23;20009;-75
2023/05/16 03:01:58;;;;;;;0.00;0.00;;;;;;;6.37;72.83;101195.28;6145309;23;20395;-74
2023/05/16 03:04:24;;;;;;;0.00;0.00;;;;;;;6.45;73.07;101202.34;6271350;22;20005;-75
2023/05/16 03:06:51;;;;;;;0.00;0.00;;;;;;;6.44;72.45;101201.53;6145905;23;20009;-75
2023/05/16 03:09:19;;;;;;;0.00;0.00;;;;;;;6.20;73.00;101172.44;6244844;22;20436;-75
2023/05/16 03:11:46;;;;;;;0.00;0.00;;;;;;;6.31;72.43;101201.63;6219290;22;20012;-74
2023/05/16 03:14:17;;;;;;;0.00;0.00;;;;;;;6.17;73.13;101186.44;6268118;22;20006;-75
2023/05/16 03:16:43;;;;;;;0.10;0.10;;;;;;;5.98;73.76;101183.63;6220119;22;20058;-75
2023/05/16 03:19:09;;;;;;;0.00;0.00;;;;;;;5.91;74.17;101175.50;6265751;22;20000;-74
2023/05/16 03:21:35;;;;;;;0.00;0.00;;;;;;;6.02;74.29;101214.72;6218883;22;20019;-74
2023/05/16 03:24:04;;;;;;;0.10;0.10;;;;;;;5.84;74.41;101198.25;6271431;22;20007;-74
2023/05/16 03:26:35;;;;;;;0.00;0.00;;;;;;;5.66;74.11;101186.22;6240466;22;20426;-74
2023/05/16 03:29:00;;;;;;;0.00;0.00;;;;;;;5.52;74.85;101171.88;6219697;22;20003;-74
2023/05/16 03:31:29;;;;;;;0.00;0.00;;;;;;;5.59;75.04;101196.28;6240206;22;20437;-75
2023/05/16 03:33:56;;;;;;;0.00;0.00;;;;;;;5.53;75.18;101199.84;6241984;22;20104;-75
2023/05/16 03:36:23;;;;;;;0.00;0.00;;;;;;;5.26;74.73;101167.38;6267795;22;20019;-75
2023/05/16 03:38:49;;;;;;;0.00;0.00;;;;;;;5.46;75.75;101199.03;6245430;22;20048;-75
2023/05/16 03:41:16;;;;;;;0.08;0.08;;;;;;;5.18;75.97;101178.44;6266976;22;20411;-75
2023/05/16 03:43:44;;;;;;;0.00;0.00;;;;;;;4.97;76.41;101169.50;6244145;22;20014;-74
2023/05/16 03:46:09;;;;;;;0.00;0.00;;;;;;;4.92;76.46;101176.59;6272330;22;20446;-74
2023/05/16 03:48:37;;;;;;;0.00;0.00;;;;;;;4.84;76.39;101185.78;6213458;22;20008;-74
2023/05/16 03:51:03;;;;;;;0.00;0.00;;;;;;;4.74;76.83;101179.97;6246248;22;20056;-72
2023/05/16 03:53:33;;;;;;;0.00;0.00;;;;;;;4.75;77.08;101192.47;6242445;22;20042;-74
2023/05/16 03:55:59;;;;;;;0.00;0.00;;;;;;;4.90;77.09;101212.03;6239707;22;20018;-74
2023/05/16 03:58:29;;;;;;;0.10;0.10;;;;;;;4.87;76.98;101216.00;6242133;22;20011;-74
2023/05/16 04:00:55;;;;;;;0.00;0.00;;;;;;;4.75;77.53;101203.31;6243832;22;20003;-74
2023/05/16 04:03:27;;;;;;;0.00;0.00;;;;;;;4.76;77.85;101211.22;6239808;22;20011;-74
2023/05/16 04:05:53;;;;;;;0.00;0.00;;;;;;;4.80;77.77;101220.59;6242839;22;20027;-73
2023/05/16 04:08:18;;;;;;;0.00;0.00;;;;;;;4.84;77.42;101223.72;6235110;22;20017;-73
2023/05/16 04:10:43;;;;;;;0.00;0.00;;;;;;;4.85;78.18;101217.28;6115661;23;20006;-74
2023/05/16 04:13:09;;;;;;;0.00;0.00;;;;;;;4.86;78.21;101219.78;6119200;22;20037;-74
2023/05/16 04:15:34;;;;;;;0.10;0.10;;;;;;;4.87;78.23;101220.59;6140667;23;20001;-73
2023/05/16 04:18:00;;;;;;;0.00;0.00;;;;;;;4.96;77.63;101237.50;6143939;22;20069;-74
2023/05/16 04:20:28;;;;;;;0.00;0.00;;;;;;;4.83;77.55;101222.06;6142017;23;20014;-74
2023/05/16 04:22:54;;;;;;;0.00;0.00;;;;;;;4.72;77.65;101210.78;6270338;22;20013;-74
2023/05/16 04:25:22;;;;;;;0.00;0.00;;;;;;;4.80;78.00;101238.72;6145969;23;20009;-74
2023/05/16 04:27:48;;;;;;;0.00;0.00;;;;;;;4.71;78.31;101230.78;6243239;22;20014;-75
2023/05/16 04:30:13;;;;;;;0.00;0.00;;;;;;;4.81;78.39;101241.22;6275095;22;20082;-73
2023/05/16 04:32:39;;;;;;;0.10;0.10;;;;;;;4.76;78.07;101232.06;6139796;23;20017;-75
2023/05/16 04:35:07;;;;;;;0.00;0.00;;;;;;;4.83;78.32;101247.31;6143623;23;20041;-74
2023/05/16 04:37:38;;;;;;;0.00;0.00;;;;;;;4.79;78.43;101231.63;6139396;23;20009;-73
2023/05/16 04:40:06;;;;;;;0.00;0.00;;;;;;;4.78;78.13;101216.44;6143388;23;20020;-75
2023/05/16 04:42:32;;;;;;;0.00;0.00;;;;;;;4.90;77.95;101233.72;6140921;23;20006;-74
2023/05/16 04:44:57;;;;;;;0.00;0.00;;;;;;;4.95;78.65;101233.09;6143927;23;20013;-75
2023/05/16 04:47:23;;;;;;;0.00;0.00;;;;;;;4.95;78.29;101233.94;6144387;23;20013;-75
2023/05/16 04:49:48;;;;;;;0.10;0.10;;;;;;;5.04;77.97;101246.25;6244803;22;20417;-74
2023/05/16 04:52:16;;;;;;;0.00;0.00;;;;;;;4.97;78.11;101221.00;6146067;23;20036;-74
2023/05/16 04:54:42;;;;;;;0.00;0.00;;;;;;;4.96;77.23;101216.63;6268112;22;20009;-73
2023/05/16 04:57:08;;;;;;;0.00;0.00;;;;;;;4.99;77.79;101212.66;6146581;23;20328;-74
2023/05/16 04:59:42;;;;;;;0.00;0.00;;;;;;;5.22;77.29;101236.63;6141861;23;20025;-76
2023/05/16 05:02:10;;;;;;;0.00;0.00;;;;;;;5.28;77.80;101235.78;6276274;22;19998;-75
2023/05/16 05:04:35;;;;;;;0.00;0.00;;;;;;;5.47;77.48;101257.66;6144529;22;20025;-75
2023/05/16 05:07:03;;;;;;;0.10;0.10;;;;;;;5.49;76.61;101253.72;6142985;23;20013;-75
2023/05/16 05:09:28;;;;;;;0.00;0.00;;;;;;;5.58;75.87;101251.59;6272664;22;20024;-75
2023/05/16 05:11:59;;;;;;;0.00;0.00;;;;;;;5.56;76.29;101240.09;6141540;23;20017;-74
2023/05/16 05:14:24;;;;;;;0.00;0.00;;;;;;;5.59;75.26;101239.69;6247175;22;20020;-75
2023/05/16 05:16:50;;;;;;;0.00;0.00;;;;;;;5.66;75.79;101237.78;6141626;23;20014;-74
2023/05/16 05:19:20;;;;;;;0.00;0.00;;;;;;;5.70;75.02;101233.59;6143481;23;20055;-74
2023/05/16 05:21:45;;;;;;;0.10;0.10;;;;;;;5.88;75.09;101254.63;6139891;23;19997;-74
2023/05/16 05:24:14;;;;;;;0.10;0.10;;;;;;;6.03;74.99;101262.56;6144743;23;20088;-74
2023/05/16 05:26:39;;;;;;;0.00;0.00;;;;;;;6.06;74.46;101262.13;6144209;23;20092;-74
2023/05/16 05:29:14;;;;;;;0.00;0.00;;;;;;;6.18;73.52;101269.59;6143368;23;20025;-74
2023/05/16 05:31:42;;;;;;;0.00;0.00;;;;;;;6.10;73.42;101249.78;6143816;23;20447;-75
2023/05/16 05:34:07;;;;;;;0.00;0.00;;;;;;;6.21;73.85;101261.00;6268575;22;20029;-74
2023/05/16 05:36:33;;;;;;;0.00;0.00;;;;;;;6.26;73.37;101253.03;6146771;23;20060;-73
2023/05/16 05:38:58;;;;;;;0.00;0.00;;;;;;;6.26;73.01;101245.72;6142574;23;20593;-74
2023/05/16 05:41:25;;;;;;;0.00;0.00;;;;;;;6.43;72.92;101261.53;6143868;23;20012;-74
2023/05/16 05:43:51;;;;;;;0.00;0.00;;;;;;;6.54;72.49;101271.69;6269882;22;20032;-74
2023/05/16 05:46:16;;;;;;;0.00;0.00;;;;;;;6.46;71.91;101248.31;6149102;23;20009;-74
2023/05/16 05:48:42;;;;;;;0.05;0.05;;;;;;;6.70;72.30;101281.22;6148825;23;20059;-74
2023/05/16 05:51:07;;;;;;;0.00;0.00;;;;;;;6.63;71.85;101259.50;6145684;23;20006;-74
2023/05/16 05:53:33;;;;;;;0.00;0.00;;;;;;;6.74;71.61;101266.09;6172939;23;20110;-74
2023/05/16 05:55:58;;;;;;;0.00;0.00;;;;;;;6.95;71.65;101283.09;6143163;23;20031;-73
2023/05/16 05:58:27;;;;;;;0.00;0.00;;;;;;;7.03;70.31;101282.84;6146140;23;20344;-76
2023/05/16 06:00:52;;;;;;;0.00;0.00;;;;;;;7.15;70.10;101308.28;6123728;23;20002;-75
2023/05/16 06:03:19;;;;;;;0.00;0.00;;;;;;;7.11;69.88;101296.19;6123384;23;20028;-74
2023/05/16 06:05:45;;;;;;;0.00;0.00;;;;;;;7.13;69.93;101290.50;6225815;23;20013;-75
2023/05/16 06:08:10;;;;;;;0.00;0.00;;;;;;;7.17;69.86;101291.75;6272149;22;20045;-74
2023/05/16 06:10:38;;;;;;;0.10;0.10;;;;;;;7.36;69.70;101306.22;6144903;23;20012;-75
2023/05/16 06:13:04;;;;;;;0.00;0.00;;;;;;;7.36;69.53;101294.50;6271088;22;20009;-76
2023/05/16 06:15:29;;;;;;;0.00;0.00;;;;;;;7.59;69.38;101310.19;6245703;22;20005;-76
2023/05/16 06:17:55;;;;;;;0.00;0.00;;;;;;;7.73;69.39;101324.53;6243687;22;20078;-74
2023/05/16 06:20:21;;;;;;;0.00;0.00;;;;;;;7.74;68.51;101298.94;6138805;23;20043;-75
2023/05/16 06:22:47;;;;;;;0.00;0.00;;;;;;;7.85;68.47;101304.47;6120163;23;19993;-75
2023/05/16 06:25:12;;;;;;;0.00;0.00;;;;;;;8.11;68.84;101332.47;6140192;22;20086;-76
2023/05/16 06:27:38;;;;;;;0.00;0.00;;;;;;;8.14;68.07;101309.41;6144064;23;20088;-76
2023/05/16 06:30:04;;;;;;;0.00;0.00;;;;;;;8.35;67.84;101329.88;6144209;23;20313;-74
2023/05/16 06:32:29;;;;;;;0.00;0.00;;;;;;;8.43;66.83;101336.94;6108302;23;20041;-75
2023/05/16 06:34:55;;;;;;;0.00;0.00;;;;;;;8.43;66.76;101320.56;6251555;22;20013;-75
2023/05/16 06:37:22;;;;;;;0.00;0.00;;;;;;;8.49;66.70;101315.03;6140795;23;20075;-75
2023/05/16 06:39:48;;;;;;;0.00;0.00;;;;;;;8.46;66.24;101288.25;6146552;23;20321;-77
2023/05/16 06:42:14;;;;;;;0.00;0.00;;;;;;;8.77;65.46;101321.78;6140181;23;20013;-75
2023/05/16 06:44:40;;;;;;;0.00;0.00;;;;;;;8.82;65.82;101313.75;6143414;23;20375;-75
2023/05/16 06:47:05;;;;;;;0.00;0.00;;;;;;;9.01;65.45;101333.63;6141556;23;20085;-78
2023/05/16 06:49:31;;;;;;;0.00;0.00;;;;;;;8.93;64.87;101308.56;6140286;23;20104;-78
2023/05/16 06:51:56;;;;;;;0.10;0.10;;;;;;;8.95;65.02;101301.81;6142848;23;20326;-79
2023/05/16 06:54:24;;;;;;;0.00;0.00;;;;;;;9.24;65.07;101326.53;6216253;23;20395;-77
2023/05/16 06:56:49;;;;;;;0.00;0.00;;;;;;;9.32;64.51;101333.56;6118748;23;20086;-77
2023/05/16 06:59:15;;;;;;;0.00;0.00;;;;;;;9.28;64.29;101321.44;6145558;23;20005;-77
2023/05/16 07:01:41;;;;;;;0.05;0.05;;;;;;;9.31;64.84;101316.34;6141275;23;20412;-78
2023/05/16 07:04:09;;;;;;;0.00;0.00;;;;;;;9.47;64.49;101323.00;6145392;23;20093;-78
2023/05/16 07:06:37;;;;;;;0.00;0.00;;;;;;;9.71;64.66;101342.09;6241360;22;20063;-77
2023/05/16 07:09:05;;;;;;;0.00;0.00;;;;;;;9.74;64.39;101319.81;6120105;22;20037;-80
2023/05/16 07:11:38;;;;;;;0.00;0.00;;;;;;;9.88;64.15;101315.72;6166166;23;20009;-79
2023/05/16 07:14:03;;;;;;;0.00;0.00;;;;;;;9.92;63.01;101319.66;6147023;23;20005;-79
2023/05/16 07:16:31;;;;;;;0.00;0.00;;;;;;;10.05;62.51;101336.88;6144052;23;20402;-80
2023/05/16 07:18:56;;;;;;;0.00;0.00;;;;;;;10.25;62.35;101347.38;6141914;23;20496;-78
2023/05/16 07:21:22;;;;;;;0.00;0.00;;;;;;;10.44;61.82;101350.81;6144595;23;20029;-79
2023/05/16 07:23:55;;;;;;;0.00;0.00;;;;;;;10.45;62.05;101336.94;6140254;23;20634;-79
2023/05/16 07:26:22;;;;;;;0.00;0.00;;;;;;;10.48;60.82;101330.97;6266842;22;20016;-78
2023/05/16 07:28:48;;;;;;;0.10;0.10;;;;;;;10.72;60.59;101349.16;6140420;23;20002;-78
2023/05/16 07:31:15;;;;;;;0.00;0.00;;;;;;;10.72;60.10;101333.59;6120611;23;20013;-79
2023/05/16 07:33:40;;;;;;;0.00;0.00;;;;;;;10.83;59.82;101335.47;6139785;23;20016;-77
2023/05/16 07:36:06;;;;;;;0.00;0.00;;;;;;;10.99;60.04;101335.72;6275246;22;20014;-77
2023/05/16 07:38:32;;;;;;;0.00;0.00;;;;;;;11.17;59.67;101337.44;6274040;22;20032;-77
2023/05/16 07:40:58;;;;;;;0.00;0.00;;;;;;;11.27;58.48;101343.06;6115606;23;20096;-78
2023/05/16 07:43:30;;;;;;;0.00;0.00;;;;;;;11.39;57.54;101353.09;6121197;23;20059;-79
2023/05/16 07:45:58;;;;;;;0.00;0.00;;;;;;;11.46;57.60;101340.06;6139438;23;20005;-78
2023/05/16 07:48:24;;;;;;;0.00;0.00;;;;;;;11.54;57.19;101336.91;6240268;22;20016;-78
2023/05/16 07:50:52;;;;;;;0.00;0.00;;;;;;;11.77;57.45;101346.00;6240154;22;20021;-77
2023/05/16 08:10:16;;;;;;;0.00;0.00;;;;;;;12.71;53.97;101353.28;6162257;23;20028;-80
2023/05/16 08:12:41;;;;;;;0.00;0.00;;;;;;;12.83;53.86;101352.31;6120023;22;20014;-80
2023/05/16 08:15:10;;;;;;;0.00;0.00;;;;;;;13.03;53.88;101357.19;6116702;23;20145;-81
2023/05/16 08:17:36;;;;;;;0.00;0.00;;;;;;;13.20;53.19;101351.56;6119191;23;20010;-80
2023/05/16 08:20:04;;;;;;;0.00;0.00;;;;;;;13.30;52.38;101351.66;6116686;23;20493;-80
2023/05/16 08:22:32;;;;;;;0.00;0.00;;;;;;;13.35;51.91;101338.00;6144260;23;20005;-80
2023/05/16 08:24:59;;;;;;;0.00;0.00;;;;;;;13.56;50.72;101360.13;6146692;23;20009;-80
2023/05/16 08:27:27;;;;;;;0.00;0.00;;;;;;;13.66;50.53;101348.41;6218529;23;20075;-80
2023/05/16 08:30:05;;;;;;;0.00;0.00;;;;;;;13.81;50.28;101366.91;6148786;23;20002;-79
2023/05/16 08:32:33;;;;;;;0.00;0.00;;;;;;;13.94;50.38;101361.78;6142677;23;20016;-79
2023/05/16 08:34:59;;;;;;;0.00;0.00;;;;;;;14.02;50.37;101352.19;6144678;23;20044;-81
2023/05/16 08:37:24;;;;;;;0.00;0.00;;;;;;;14.15;50.13;101334.38;6140876;23;20337;-80
2023/05/16 08:40:04;;;;;;;0.00;0.00;;;;;;;14.37;49.39;101347.97;6250411;22;20078;-81
2023/05/16 08:42:55;;;;;;;0.00;0.00;;;;;;;14.41;48.89;101360.09;6140498;23;20017;-80
2023/05/16 08:45:27;;;;;;;0.00;0.00;;;;;;;14.47;48.92;101370.00;6220605;22;20096;-80
2023/05/16 08:47:55;;;;;;;0.00;0.00;;;;;;;14.45;48.30;101350.19;6141778;23;20012;-79
2023/05/16 08:50:21;;;;;;;0.00;0.00;;;;;;;14.54;48.49;101358.75;6144812;23;20009;-80
2023/05/16 08:52:53;;;;;;;0.00;0.00;;;;;;;14.76;47.99;101374.25;6140485;23;20399;-79
2023/05/16 08:55:21;;;;;;;0.00;0.00;;;;;;;14.68;47.49;101356.34;6145747;23;20024;-80
2023/05/16 08:57:49;;;;;;;0.00;0.00;;;;;;;14.83;48.06;101377.59;6142903;23;20716;-80
2023/05/16 09:00:16;;;;;;;0.00;0.00;;;;;;;14.87;47.82;101353.09;6118063;23;20010;-79
2023/05/16 09:02:51;;;;;;;0.00;0.00;;;;;;;14.96;47.63;101362.47;6148477;23;19997;-78
2023/05/16 09:05:17;;;;;;;0.00;0.00;;;;;;;15.09;46.68;101355.59;6142563;22;20009;-80
2023/05/16 09:10:58;;;;;;;;;;;;;;;;;;;;;
2023/05/16 09:13:26;;;;;;;0.00;0.00;;;;;;;15.67;45.16;101322.25;6144809;23;20088;-80
2023/05/16 09:16:28;;;;;;;0.00;0.00;;;;;;;16.13;44.75;101360.75;6144036;23;20029;-80
2023/05/16 09:19:03;;;;;;;0.00;0.00;;;;;;;16.47;44.75;101346.28;6149754;23;20036;-79
2023/05/16 09:21:35;;;;;;;0.00;0.00;;;;;;;17.15;43.09;101374.38;6122842;23;20006;-81
2023/05/16 09:24:04;;;;;;;0.00;0.00;;;;;;;17.91;42.25;101372.91;6140725;23;20005;-81
2023/05/16 09:26:36;;;;;;;0.00;0.00;;;;;;;18.71;41.23;101353.13;6145282;23;20005;-79
2023/05/16 09:29:08;;;;;;;0.00;0.00;;;;;;;19.63;40.16;101368.31;6139928;23;20001;-79
2023/05/16 09:31:37;;;;;;;0.00;0.00;;;;;;;19.84;37.70;101362.44;6145112;23;20006;-80
2023/05/16 09:34:06;;;;;;;0.00;0.00;;;;;;;19.75;37.91;101359.50;6241599;22;20535;-80
2023/05/16 09:36:51;;;;;;;0.00;0.00;;;;;;;20.07;38.05;101382.00;6140815;23;20002;-79
2023/05/16 09:39:19;;;;;;;0.00;0.00;;;;;;;20.25;37.36;101369.97;6140694;23;20035;-79
2023/05/16 09:41:45;;;;;;;0.00;0.00;;;;;;;19.93;35.84;101363.38;6145667;23;20004;-80
2023/05/16 09:44:17;;;;;;;0.00;0.00;;;;;;;19.68;36.27;101365.47;6271051;22;20014;-79
2023/05/16 09:46:43;;;;;;;0.00;0.00;;;;;;;22.30;33.85;101382.88;6145818;23;20025;-80
2023/05/16 09:49:13;;;;;;;0.00;0.00;;;;;;;24.35;31.39;101369.75;6219180;23;20017;-78
2023/05/16 09:51:40;;;;;;;0.00;0.00;;;;;;;27.93;26.73;101383.28;6145291;23;20044;-80
2023/05/16 09:54:08;;;;;;;0.00;0.00;;;;;;;28.84;25.09;101358.97;6219466;23;20010;-79
2023/05/16 09:56:47;;;;;;;0.00;0.00;;;;;;;29.60;23.53;101371.78;6144925;23;20021;-79
2023/05/16 09:59:13;;;;;;;0.00;0.00;;;;;;;31.92;21.98;101373.78;6145751;23;20005;-81
2023/05/16 10:01:40;;;;;;;0.00;0.00;;;;;;;34.18;19.17;101371.16;6116900;23;20020;-80
2023/05/16 10:04:05;;;;;;;0.00;0.00;;;;;;;32.42;19.82;101370.56;6119986;23;20093;-80
2023/05/16 10:06:31;;;;;;;0.00;0.00;;;;;;;33.12;19.57;101379.03;6142380;23;20139;-78
2023/05/16 10:09:00;;;;;;;0.00;0.00;;;;;;;31.64;20.47;101390.13;6249228;22;20056;-80
2023/05/16 10:11:26;;;;;;;0.00;0.00;;;;;;;33.94;19.70;101386.97;6121448;22;20005;-81
2023/05/16 10:13:52;;;;;;;0.00;0.00;;;;;;;36.53;17.10;101369.91;6145450;23;20012;-79
2023/05/16 10:16:20;;;;;;;0.00;0.00;;;;;;;38.29;15.59;101373.13;6121678;23;20010;-80
2023/05/16 10:18:49;;;;;;;0.00;0.00;;;;;;;38.68;13.60;101365.84;6144028;23;20001;-79
2023/05/16 10:21:19;;;;;;;0.00;0.00;;;;;;;39.02;13.69;101373.31;6146956;22;20417;-79
2023/05/16 10:23:47;;;;;;;0.00;0.00;;;;;;;40.07;13.61;101357.41;6142611;23;20460;-79
2023/05/16 10:26:15;;;;;;;0.00;0.00;;;;;;;41.54;12.47;101376.53;6146747;23;20051;-78
2023/05/16 10:28:41;;;;;;;0.00;0.00;;;;;;;41.76;12.13;101368.03;6141889;23;20006;-80
2023/05/16 10:31:08;;;;;;;0.00;0.00;;;;;;;38.03;13.67;101367.03;6146944;23;20118;-81
2023/05/16 10:33:35;;;;;;;0.00;0.00;;;;;;;35.44;14.93;101353.72;6143251;23;20092;-80
2023/05/16 10:36:03;;;;;;;0.00;0.00;;;;;;;37.59;14.79;101366.13;6144445;23;20420;-80
2023/05/16 10:38:30;;;;;;;0.00;0.00;;;;;;;40.43;12.94;101370.72;6145955;23;20083;-80
2023/05/16 10:41:04;;;;;;;0.00;0.00;;;;;;;41.94;12.20;101365.34;6244800;22;20028;-80
2023/05/16 10:43:29;;;;;;;0.00;0.00;;;;;;;38.81;12.27;101350.91;6228795;23;20016;-79
2023/05/16 10:46:06;;;;;;;0.00;0.00;;;;;;;35.35;15.00;101366.78;6141113;23;20006;-78
2023/05/16 10:48:41;;;;;;;0.00;0.00;;;;;;;33.87;15.48;101361.44;6145981;23;20026;-79
2023/05/16 10:51:21;;;;;;;0.00;0.00;;;;;;;30.94;17.22;101366.22;6140433;23;20013;-80
2023/05/16 10:53:50;;;;;;;0.00;0.00;;;;;;;30.77;18.97;101337.41;6145481;23;20001;-79
2023/05/16 10:56:22;;;;;;;0.00;0.00;;;;;;;35.63;16.44;101366.59;6141601;23;20001;-79
2023/05/16 10:58:48;;;;;;;0.00;0.00;;;;;;;39.00;13.72;101347.22;6144123;23;20032;-81
2023/05/16 11:01:20;;;;;;;0.00;0.00;;;;;;;38.22;12.94;101339.00;6142641;23;20035;-82
2023/05/16 11:03:58;;;;;;;0.00;0.00;;;;;;;34.84;14.94;101366.19;6267773;22;20424;-79
2023/05/16 11:06:28;;;;;;;0.00;0.00;;;;;;;36.14;15.29;101357.66;6139595;23;20005;-78
2023/05/16 11:09:12;;;;;;;0.00;0.00;;;;;;;39.95;13.86;101360.97;6144805;23;20013;-80
2023/05/16 11:11:54;;;;;;;0.00;0.00;;;;;;;42.33;11.07;101362.38;6141760;23;20004;-78
2023/05/16 11:15:04;;;;;;;;;;;;;;;;;;;;;
2023/05/16 11:17:47;;;;;;;0.00;0.00;;;;;;;40.02;11.86;101325.66;6142217;23;20005;-81
2023/05/16 11:23:31;;;;;;;0.00;0.00;;;;;;;37.33;14.56;101345.72;6137780;23;20008;-80
2023/05/16 11:26:09;;;;;;;;;;;;;;;;;;;;;
2023/05/16 11:28:39;;;;;;;0.00;0.00;;;;;;;40.97;11.22;101325.41;6143164;23;20076;-81
2023/05/16 11:31:13;;;;;;;0.00;0.00;;;;;;;42.66;10.56;101324.66;6246755;22;20001;-82
2023/05/16 11:33:41;;;;;;;0.00;0.00;;;;;;;43.26;9.98;101325.59;6139966;23;20008;-80
2023/05/16 11:36:11;;;;;;;0.00;0.00;;;;;;;44.17;9.50;101321.31;6144158;23;20040;-81
2023/05/16 11:38:47;;;;;;;0.00;0.00;;;;;;;45.23;9.27;101324.66;6144640;23;20085;-82
2023/05/16 11:41:14;;;;;;;0.00;0.00;;;;;;;44.74;8.40;101311.34;6271904;22;20017;-83
2023/05/16 11:43:45;;;;;;;0.00;0.00;;;;;;;44.95;9.43;101327.63;6272344;22;20036;-81
2023/05/16 11:46:19;;;;;;;0.00;0.00;;;;;;;44.50;9.36;101326.44;6143379;23;20089;-82
2023/05/16 11:48:46;;;;;;;0.00;0.00;;;;;;;44.79;9.45;101316.47;6145436;23;20016;-82
2023/05/16 11:51:20;;;;;;;0.00;0.00;;;;;;;42.98;9.75;101305.28;6140938;23;20012;-81
2023/05/16 11:53:50;;;;;;;0.00;0.00;;;;;;;41.31;11.01;101336.22;6144511;23;20010;-81
2023/05/16 11:56:22;;;;;;;0.00;0.00;;;;;;;42.23;9.73;101303.22;6141059;23;20089;-82
2023/05/16 11:58:55;;;;;;;0.00;0.00;;;;;;;42.08;9.97;101317.28;6147061;23;20338;-82
2023/05/16 12:01:23;;;;;;;0.00;0.00;;;;;;;43.63;10.24;101299.81;6140418;23;20036;-81
2023/05/16 12:03:59;;;;;;;0.00;0.00;;;;;;;43.73;9.30;101312.94;6250240;22;20009;-81
2023/05/16 12:06:32;;;;;;;0.00;0.00;;;;;;;43.26;10.29;101323.53;6142334;23;20416;-83
2023/05/16 12:09:07;;;;;;;0.00;0.00;;;;;;;44.68;9.92;101313.28;6249342;22;20348;-82